»·PEaware :: SWA1294 KSFO-KDEN

SWA1294 :: KSFO-KDEN

FLIGHT INFORMATION

Flight Status: Arrived
Operator:
Southwest Airlines
More flights by this operator :: More flights under this callsign
Pilot: Daniel R. (17770)
Aircraft: BOEING 737-200
(B732)
More flights by this aircraft type
Origin: KSFO San Francisco Intl
United States
Destination: KDEN Denver Intl
United States
More flights between these airports :: More routes between these airports
Route: +SFO4 LIN J84 MVA J198 ILC J80 MLF J28 HBU POWDR9
File this flight plan on PilotEdge
Remarks:
Altitude:
(Current/Filed)
31,000ft
Speed:
(Current/Filed)
437kts
Departed: 10-Oct-18 05:02 PM
Arrived: 10-Oct-18 07:13 PM
Distance/Time
Traveled:
838nm/2:11
Distance/Time
To Go:
Arrived

Flight Plot

Page will automatically refresh every two minutes.

Flight plan parsing failed; only flown route is shown


Map Options




Map Legend


Flown Route
Filed Route
Departure Airport
Arrival Airport
Navaid (VOR, NDB)
Fix

Horizontal Profiles

Position Reports

Time Latitude Longitude Heading Altitude Ground
Speed
10-Oct-18 16:18 37.612553 -122.384701 12 31ft 0kts
10-Oct-18 16:19 37.612553 -122.384701 12 31ft 0kts
10-Oct-18 16:20 37.612553 -122.384701 12 31ft 0kts
10-Oct-18 16:21 37.612553 -122.384701 12 31ft 0kts
10-Oct-18 16:22 37.612553 -122.384701 12 31ft 0kts
10-Oct-18 16:23 37.612553 -122.384701 12 31ft 0kts
10-Oct-18 16:24 37.612553 -122.384701 12 31ft 0kts
10-Oct-18 16:25 37.612553 -122.384701 12 31ft 0kts
10-Oct-18 16:26 37.612553 -122.384701 12 31ft 0kts
10-Oct-18 16:27 37.612553 -122.384701 12 31ft 0kts
10-Oct-18 16:28 37.612553 -122.384701 12 31ft 0kts
10-Oct-18 16:29 37.612553 -122.384701 12 31ft 0kts
10-Oct-18 16:30 37.612553 -122.384701 12 31ft 0kts
10-Oct-18 16:31 37.612553 -122.384701 12 31ft 0kts
10-Oct-18 16:32 37.612553 -122.384701 12 31ft 0kts
10-Oct-18 16:33 37.612553 -122.384701 12 31ft 0kts
10-Oct-18 16:34 37.612553 -122.384701 12 31ft 0kts
10-Oct-18 16:35 37.612553 -122.384701 12 31ft 0kts
10-Oct-18 16:36 37.612553 -122.384701 12 31ft 0kts
10-Oct-18 16:37 37.612553 -122.384701 12 31ft 0kts
10-Oct-18 16:38 37.612553 -122.384701 12 31ft 0kts
10-Oct-18 16:39 37.612553 -122.384701 12 31ft 0kts
10-Oct-18 16:40 37.612553 -122.384701 12 31ft 0kts
10-Oct-18 16:41 37.612553 -122.384701 12 31ft 0kts
10-Oct-18 16:42 37.612553 -122.384701 12 31ft 0kts
10-Oct-18 16:43 37.612553 -122.384701 12 31ft 0kts
10-Oct-18 16:44 37.612553 -122.384701 12 31ft 0kts
10-Oct-18 16:45 37.612553 -122.384701 12 31ft 0kts
10-Oct-18 16:46 37.612553 -122.384701 12 31ft 0kts
10-Oct-18 16:47 37.612553 -122.384701 12 31ft 0kts
10-Oct-18 16:48 37.612238 -122.384790 13 31ft 2kts
10-Oct-18 16:49 37.611763 -122.384789 358 31ft 2kts
10-Oct-18 16:50 37.611290 -122.384590 279 32ft 2kts
10-Oct-18 16:51 37.611350 -122.384354 224 31ft 0kts
10-Oct-18 16:52 37.611350 -122.384354 224 31ft 0kts
10-Oct-18 16:53 37.611350 -122.384354 224 31ft 0kts
10-Oct-18 16:54 37.611350 -122.384354 224 31ft 0kts
10-Oct-18 16:55 37.611155 -122.384392 122 31ft 0kts
10-Oct-18 16:56 37.611155 -122.384392 122 31ft 0kts
10-Oct-18 16:57 37.611056 -122.383849 79 31ft 10kts
10-Oct-18 16:58 37.615219 -122.380562 29 31ft 21kts
10-Oct-18 16:59 37.616234 -122.373489 100 15ft 27kts
10-Oct-18 17:00 37.611800 -122.363402 117 8ft 28kts
10-Oct-18 17:01 37.610989 -122.359066 33 8ft 0kts
10-Oct-18 17:02 37.610989 -122.359066 33 8ft 0kts
10-Oct-18 17:03 37.611175 -122.358919 31 8ft 8kts
10-Oct-18 17:04 37.613997 -122.364315 295 12ft 88kts
10-Oct-18 17:05 37.635865 -122.412528 294 1220ft 194kts
10-Oct-18 17:06 37.660649 -122.471359 295 3012ft 220kts
10-Oct-18 17:07 37.688275 -122.536765 301 5050ft 202kts
10-Oct-18 17:08 37.733334 -122.525088 71 6544ft 232kts
10-Oct-18 17:09 37.750799 -122.448725 65 7710ft 260kts
10-Oct-18 17:10 37.774552 -122.366927 69 9979ft 270kts
10-Oct-18 17:11 37.797128 -122.275332 71 11710ft 294kts
10-Oct-18 17:12 37.819739 -122.176885 71 13688ft 304kts
10-Oct-18 17:13 37.842942 -122.073341 71 15481ft 313kts
10-Oct-18 17:14 37.866689 -121.966284 71 17094ft 322kts
10-Oct-18 17:15 37.891504 -121.853902 71 17856ft 354kts
10-Oct-18 17:16 37.918636 -121.729922 71 18945ft 368kts
10-Oct-18 17:17 37.945147 -121.606262 70 20267ft 369kts
10-Oct-18 17:18 37.972895 -121.479984 70 21285ft 376kts
10-Oct-18 17:19 38.000640 -121.351614 70 22200ft 382kts
10-Oct-18 17:20 38.026809 -121.226197 71 22983ft 388kts
10-Oct-18 17:21 38.054674 -121.094221 71 23870ft 389kts
10-Oct-18 17:22 38.083669 -120.961675 77 24495ft 395kts
10-Oct-18 17:23 38.106688 -120.827828 78 24537ft 418kts
10-Oct-18 17:24 38.133007 -120.683108 78 25104ft 424kts
10-Oct-18 17:25 38.159238 -120.536309 77 25665ft 429kts
10-Oct-18 17:26 38.185348 -120.388047 77 26183ft 433kts
10-Oct-18 17:27 38.210284 -120.243633 78 26636ft 436kts
10-Oct-18 17:28 38.236525 -120.092696 78 27122ft 438kts
10-Oct-18 17:29 38.262392 -119.943397 77 27820ft 434kts
10-Oct-18 17:30 38.292439 -119.768233 77 28284ft 437kts
10-Oct-18 17:31 38.313832 -119.642069 77 28596ft 439kts
10-Oct-18 17:32 38.339326 -119.491943 77 29333ft 432kts
10-Oct-18 17:33 38.363951 -119.344930 77 29621ft 435kts
10-Oct-18 17:34 38.384025 -119.192099 78 29909ft 438kts
10-Oct-18 17:35 38.407719 -119.040003 77 30225ft 438kts
10-Oct-18 17:36 38.431598 -118.891205 79 30812ft 432kts
10-Oct-18 17:37 38.455735 -118.739590 80 30904ft 440kts
10-Oct-18 17:38 38.480084 -118.585126 80 30904ft 448kts
10-Oct-18 17:39 38.504792 -118.428022 80 30905ft 456kts
10-Oct-18 17:40 38.528462 -118.273198 81 30896ft 459kts
10-Oct-18 17:41 38.552528 -118.113497 81 30898ft 457kts
10-Oct-18 17:42 38.565708 -117.954581 102 30934ft 446kts
10-Oct-18 17:43 38.549968 -117.797183 99 30903ft 448kts
10-Oct-18 17:44 38.537943 -117.638644 98 30935ft 448kts
10-Oct-18 17:45 38.526461 -117.480504 98 30949ft 447kts
10-Oct-18 17:46 38.515054 -117.325872 99 30944ft 448kts
10-Oct-18 17:47 38.502817 -117.168436 98 30943ft 447kts
10-Oct-18 17:48 38.490795 -117.010639 98 30942ft 447kts
10-Oct-18 17:49 38.478596 -116.852853 98 30945ft 448kts
10-Oct-18 17:50 38.466031 -116.694742 98 30947ft 449kts
10-Oct-18 17:51 38.453442 -116.536099 98 30948ft 450kts
10-Oct-18 17:52 38.440518 -116.377191 98 30950ft 453kts
10-Oct-18 17:53 38.420007 -116.222843 106 30946ft 452kts
10-Oct-18 17:54 38.400286 -116.064282 99 30944ft 456kts
10-Oct-18 17:55 38.386129 -115.903432 98 30946ft 458kts
10-Oct-18 17:56 38.372573 -115.742101 98 30970ft 459kts
10-Oct-18 17:57 38.358856 -115.580253 98 30984ft 461kts
10-Oct-18 17:58 38.344895 -115.418081 98 30986ft 462kts
10-Oct-18 17:59 38.330691 -115.260494 99 30979ft 463kts
10-Oct-18 18:00 38.316081 -115.097932 99 30979ft 464kts
10-Oct-18 18:01 38.301270 -114.934644 99 30980ft 465kts
10-Oct-18 18:02 38.286329 -114.771950 99 30982ft 466kts
10-Oct-18 18:03 38.270432 -114.607920 99 30984ft 467kts
10-Oct-18 18:04 38.254415 -114.443999 99 30985ft 468kts
10-Oct-18 18:05 38.257478 -114.283882 84 30975ft 474kts
10-Oct-18 18:06 38.272545 -114.117580 85 30979ft 473kts
10-Oct-18 18:07 38.286170 -113.951109 85 30981ft 474kts
10-Oct-18 18:08 38.304295 -113.785275 85 30982ft 474kts
10-Oct-18 18:09 38.317691 -113.618529 86 30984ft 475kts
10-Oct-18 18:10 38.330143 -113.451127 86 30985ft 476kts
10-Oct-18 18:11 38.341887 -113.287666 86 30978ft 476kts
10-Oct-18 18:12 38.354006 -113.119877 86 30979ft 476kts
10-Oct-18 18:13 38.363782 -112.952345 91 30979ft 475kts
10-Oct-18 18:14 38.366960 -112.783861 90 30982ft 476kts
10-Oct-18 18:15 38.371049 -112.615305 90 30985ft 478kts
10-Oct-18 18:16 38.375091 -112.445789 90 30990ft 480kts
10-Oct-18 18:17 38.378468 -112.279659 91 30975ft 481kts
10-Oct-18 18:18 38.381768 -112.109500 90 31027ft 480kts
10-Oct-18 18:19 38.385043 -111.939705 90 31045ft 481kts
10-Oct-18 18:20 38.394576 -111.769538 87 31046ft 482kts
10-Oct-18 18:21 38.401134 -111.599309 89 31049ft 483kts
10-Oct-18 18:22 38.405095 -111.427994 90 31023ft 484kts
10-Oct-18 18:23 38.407990 -111.260592 91 30996ft 485kts
10-Oct-18 18:24 38.410908 -111.089247 90 30997ft 484kts
10-Oct-18 18:25 38.413309 -110.946600 91 30998ft 483kts
10-Oct-18 18:26 38.416419 -110.746957 91 31002ft 484kts
10-Oct-18 18:27 38.420406 -110.575069 89 31004ft 485kts
10-Oct-18 18:28 38.424314 -110.432167 89 31006ft 486kts
10-Oct-18 18:29 38.428108 -110.263983 90 30988ft 487kts
10-Oct-18 18:30 38.432588 -110.063294 90 30980ft 487kts
10-Oct-18 18:31 38.435704 -109.919318 90 30982ft 487kts
10-Oct-18 18:32 38.439242 -109.747885 90 30983ft 487kts
10-Oct-18 18:33 38.442576 -109.574914 90 30986ft 488kts
10-Oct-18 18:34 38.445650 -109.402273 90 30991ft 488kts
10-Oct-18 18:35 38.448187 -109.209002 91 31028ft 487kts
10-Oct-18 18:36 38.450238 -109.065605 91 31046ft 487kts
10-Oct-18 18:37 38.453151 -108.893442 91 31065ft 488kts
10-Oct-18 18:38 38.451152 -108.720052 93 31067ft 490kts
10-Oct-18 18:39 38.445083 -108.546439 93 31070ft 492kts
10-Oct-18 18:40 38.445331 -108.372175 91 31062ft 495kts
10-Oct-18 18:41 38.446639 -108.177174 91 31031ft 496kts
10-Oct-18 18:42 38.447993 -108.031704 91 31035ft 496kts
10-Oct-18 18:43 38.449384 -107.857645 91 31037ft 496kts
10-Oct-18 18:44 38.450588 -107.682758 91 31040ft 497kts
10-Oct-18 18:45 38.451422 -107.506419 92 31042ft 498kts
10-Oct-18 18:46 38.451014 -107.337553 92 31071ft 498kts
10-Oct-18 18:47 38.451917 -107.163409 90 31081ft 498kts
10-Oct-18 18:48 38.459545 -106.990760 75 31062ft 500kts
10-Oct-18 18:49 38.559996 -106.843455 38 31090ft 485kts
10-Oct-18 18:50 38.647810 -106.715961 45 30554ft 479kts
10-Oct-18 18:51 38.715205 -106.606930 46 28823ft 466kts
10-Oct-18 18:52 38.804785 -106.458823 47 26493ft 447kts
10-Oct-18 18:53 38.866649 -106.355900 47 25136ft 437kts
10-Oct-18 18:54 38.935836 -106.238542 47 24190ft 428kts
10-Oct-18 18:55 39.006900 -106.119166 46 23411ft 421kts
10-Oct-18 18:56 39.078323 -106.002196 45 22664ft 413kts
10-Oct-18 18:57 39.142370 -105.898823 45 22054ft 380kts
10-Oct-18 18:58 39.206502 -105.793243 46 20687ft 372kts
10-Oct-18 18:59 39.268798 -105.689532 46 19624ft 364kts
10-Oct-18 19:00 39.329564 -105.587876 46 19078ft 352kts
10-Oct-18 19:01 39.388792 -105.488227 46 18874ft 352kts
10-Oct-18 19:02 39.448008 -105.388398 47 17422ft 347kts
10-Oct-18 19:03 39.503797 -105.293329 48 15988ft 335kts
10-Oct-18 19:04 39.558645 -105.199951 49 14015ft 321kts
10-Oct-18 19:05 39.589788 -105.099208 88 12423ft 316kts
10-Oct-18 19:06 39.591002 -104.994490 88 11561ft 287kts
10-Oct-18 19:07 39.593311 -104.902392 88 10570ft 252kts
10-Oct-18 19:08 39.597398 -104.813189 88 9408ft 241kts
10-Oct-18 19:09 39.603655 -104.714850 85 8000ft 231kts
10-Oct-18 19:10 39.639083 -104.672479 28 7972ft 201kts
10-Oct-18 19:11 39.690912 -104.662536 359 7354ft 192kts
10-Oct-18 19:12 39.742730 -104.661695 359 6995ft 178kts
10-Oct-18 19:13 39.793783 -104.661000 0 6167ft 180kts
10-Oct-18 19:14 39.840317 -104.660373 0 5443ft 132kts
10-Oct-18 19:15 39.853258 -104.661798 329 5443ft 0kts
10-Oct-18 19:16 39.853258 -104.661798 329 5443ft 0kts
10-Oct-18 19:17 39.853281 -104.661815 330 5443ft 2kts
10-Oct-18 19:18 39.858971 -104.662297 0 5443ft 33kts
10-Oct-18 19:19 39.860159 -104.663656 270 5443ft 6kts
10-Oct-18 19:20 39.861478 -104.671805 311 5443ft 0kts
10-Oct-18 19:21 39.862157 -104.673119 20 5443ft 6kts
10-Oct-18 19:22 39.862436 -104.672976 23 5443ft 0kts
10-Oct-18 19:23 39.862436 -104.672976 23 5443ft 0kts
10-Oct-18 19:24 39.862436 -104.672976 23 5443ft 0kts
10-Oct-18 19:25 39.862436 -104.672976 23 5443ft 0kts
10-Oct-18 19:26 39.862436 -104.672976 23 5443ft 0kts
10-Oct-18 19:27 39.862436 -104.672976 23 5443ft 0kts
10-Oct-18 19:28 39.862436 -104.672976 23 5443ft 0kts
10-Oct-18 19:29 39.862436 -104.672976 23 5443ft 0kts

Navigation Log

Ident Type
Flight plan parsing failed, navigation log unavailable